Terminal Aerodrome Forecast
Issued by NWS

Home | Current Version | Previous Version | Text Only | Print | Product List | Glossary On
Versions: 1 2 3 4 5 6 7 8 9 10 11 12 13 14 15 16 17 18
858
FTUS43 KMQT 141739
TAFSAW
TAF
KSAW 141739Z 1418/1518 19010G15KT P6SM SCT200
     FM142100 18012G16KT P6SM BKN040
     FM150000 18011KT P6SM BKN030
     FM150200 18011G16KT P6SM -SN OVC028
     FM150800 18008KT 2SM -SN OVC016
     FM151000 18007KT 3SM -SN OVC016
     FM151500 20006KT P6SM OVC022=

USA.gov is the U.S. government's official web portal to all federal, state and local government web resources and services.